createdAt,value
2022-09-29T00:05:47.650Z,34.70
2022-09-29T00:10:51.737Z,40.70
2022-09-29T00:15:58.523Z,44.45
2022-09-29T00:21:01.725Z,38.47
2022-09-29T00:26:06.495Z,45.95
2022-09-29T00:31:09.733Z,49.08
2022-09-29T00:36:13.814Z,39.97
2022-09-29T00:41:18.850Z,49.60
2022-09-29T00:46:23.841Z,55.13
2022-09-29T00:51:26.462Z,55.20
2022-09-29T00:56:31.674Z,40.63
2022-09-29T01:01:34.293Z,53.30
2022-09-29T01:06:38.391Z,44.53
2022-09-29T01:11:42.647Z,52.47
2022-09-29T01:16:45.845Z,43.10
2022-09-29T01:21:54.946Z,44.13
2022-09-29T01:27:05.790Z,46.08
2022-09-29T01:32:13.852Z,59.75
2022-09-29T01:37:18.730Z,53.67
2022-09-29T01:42:23.909Z,48.17
2022-09-29T01:47:29.447Z,67.45
2022-09-29T01:52:34.141Z,49.10
2022-09-29T01:57:40.275Z,69.63
2022-09-29T02:02:45.597Z,63.35
2022-09-29T02:07:48.835Z,84.00
2022-09-29T02:12:53.490Z,82.10
2022-09-29T02:18:00.317Z,71.32
2022-09-29T02:23:02.704Z,69.32
2022-09-29T02:28:05.539Z,71.43
2022-09-29T02:33:18.161Z,40.50
2022-09-29T02:38:25.612Z,92.90
2022-09-29T02:43:36.285Z,92.40
2022-09-29T02:48:53.938Z,43.70
2022-09-29T02:54:05.951Z,61.08
2022-09-29T02:59:09.095Z,59.08
2022-09-29T03:04:12.750Z,56.47
2022-09-29T03:14:17.553Z,54.03
2022-09-29T03:19:21.263Z,43.35
2022-09-29T03:29:25.886Z,43.78
2022-09-29T03:34:29.656Z,48.38
2022-09-29T03:39:32.075Z,58.58
2022-09-29T03:44:34.495Z,71.88
2022-09-29T03:49:38.188Z,47.67
2022-09-29T03:54:40.647Z,48.05
2022-09-29T03:59:45.592Z,55.78
2022-09-29T04:04:49.574Z,49.85
2022-09-29T04:14:54.122Z,40.67
2022-09-29T04:19:57.764Z,52.50
2022-09-29T04:30:02.262Z,54.65
2022-09-29T04:35:06.398Z,53.47
2022-09-29T04:40:09.408Z,51.25
2022-09-29T04:45:11.758Z,53.97
2022-09-29T04:50:15.413Z,62.72
2022-09-29T05:00:20.610Z,42.92
2022-09-29T05:05:24.264Z,60.78
2022-09-29T05:15:28.848Z,47.22
2022-09-29T05:20:41.769Z,76.13
2022-09-29T05:25:47.150Z,81.18
2022-09-29T05:30:49.493Z,49.50
2022-09-29T05:35:53.162Z,50.85
2022-09-29T05:46:00.497Z,49.58
2022-09-29T05:51:09.637Z,90.82
2022-09-29T05:56:12.930Z,58.35
2022-09-29T06:01:16.172Z,61.03
2022-09-29T06:06:21.654Z,54.75
2022-09-29T06:11:24.896Z,68.88
2022-09-29T06:16:28.841Z,54.65
2022-09-29T06:21:33.882Z,74.15
2022-09-29T06:26:36.238Z,98.60
2022-09-29T06:31:39.287Z,85.82
2022-09-29T06:37:02.124Z,75.90
2022-09-29T06:42:04.571Z,78.65
2022-09-29T06:47:06.892Z,73.45
2022-09-29T06:52:19.493Z,74.75
2022-09-29T06:57:23.496Z,76.57
2022-09-29T07:02:25.869Z,74.57
2022-09-29T07:07:29.538Z,73.28
2022-09-29T07:17:34.083Z,68.13
2022-09-29T07:22:37.767Z,75.53
2022-09-29T07:27:40.082Z,73.07
2022-09-29T07:32:47.742Z,63.55
2022-09-29T07:37:56.095Z,58.78
2022-09-29T07:43:00.810Z,56.40
2022-09-29T07:48:03.155Z,48.40
2022-09-29T07:53:06.837Z,46.92
2022-09-29T07:58:09.230Z,44.33
2022-09-29T08:03:11.562Z,42.72
2022-09-29T08:08:15.233Z,43.08
2022-09-29T08:13:17.538Z,40.72
2022-09-29T08:18:19.848Z,45.28
2022-09-29T08:23:23.951Z,39.20
2022-09-29T08:28:31.577Z,33.85
2022-09-29T08:33:34.964Z,35.30
2022-09-29T08:38:42.683Z,35.40
2022-09-29T08:43:46.035Z,32.88
2022-09-29T08:48:57.939Z,32.25
2022-09-29T08:54:04.137Z,30.95
2022-09-29T08:59:06.615Z,28.77
2022-09-29T09:04:15.774Z,29.42
2022-09-29T09:09:28.545Z,28.15
2022-09-29T09:14:38.089Z,22.15
2022-09-29T09:19:55.276Z,20.50
2022-09-29T09:25:00.332Z,17.90
2022-09-29T09:30:05.992Z,17.00
2022-09-29T09:35:23.263Z,15.63
2022-09-29T09:40:29.651Z,13.68
2022-09-29T09:45:34.105Z,12.60
2022-09-29T09:50:38.160Z,13.00
2022-09-29T09:55:41.986Z,11.95
2022-09-29T10:00:47.136Z,10.43
2022-09-29T10:05:51.413Z,11.10
2022-09-29T10:10:59.005Z,9.00
2022-09-29T10:16:08.205Z,9.40
2022-09-29T10:21:20.499Z,9.70
2022-09-29T10:26:25.997Z,7.97
2022-09-29T10:31:29.929Z,8.10
2022-09-29T10:36:33.340Z,8.13
2022-09-29T10:41:51.154Z,8.50
2022-09-29T10:46:54.886Z,7.70
2022-09-29T10:52:04.877Z,7.80
2022-09-29T10:57:15.676Z,8.25
2022-09-29T11:02:21.580Z,7.68
2022-09-29T11:07:23.991Z,7.50
2022-09-29T11:12:28.963Z,6.80
2022-09-29T11:17:39.632Z,6.30
2022-09-29T11:23:01.300Z,6.30
2022-09-29T11:28:07.015Z,6.47
2022-09-29T11:33:18.900Z,6.15
2022-09-29T11:38:36.123Z,6.82
2022-09-29T11:43:44.932Z,6.70
2022-09-29T11:49:06.143Z,7.22
2022-09-29T11:54:17.969Z,5.43
2022-09-29T11:59:31.189Z,5.70
2022-09-29T12:09:51.808Z,5.10
2022-09-29T12:15:01.307Z,5.38
2022-09-29T12:20:06.748Z,5.88
2022-09-29T12:25:14.420Z,5.28
2022-09-29T12:30:21.158Z,4.63
2022-09-29T12:35:26.661Z,5.10
2022-09-29T12:40:33.781Z,4.85
2022-09-29T12:45:46.995Z,5.22
2022-09-29T12:55:54.928Z,4.60
2022-09-29T13:01:01.206Z,4.22
2022-09-29T13:06:21.252Z,4.00
2022-09-29T13:11:35.741Z,3.78
2022-09-29T13:16:44.419Z,4.25
2022-09-29T13:21:55.028Z,4.82
2022-09-29T13:27:09.910Z,4.45
2022-09-29T13:32:13.909Z,4.45
2022-09-29T13:37:17.676Z,4.00
2022-09-29T13:42:43.933Z,4.00
2022-09-29T13:47:49.326Z,4.32
2022-09-29T13:52:51.676Z,3.80
2022-09-29T13:57:54.017Z,3.90
2022-09-29T14:03:15.214Z,4.53
2022-09-29T14:08:23.518Z,3.70
2022-09-29T14:13:27.330Z,2.38
2022-09-29T14:18:32.881Z,3.83
2022-09-29T14:23:54.986Z,3.70
2022-09-29T14:28:58.101Z,4.18
2022-09-29T14:44:50.446Z,3.22
2022-09-29T14:50:27.735Z,2.58
2022-09-29T14:55:37.913Z,2.53
2022-09-29T15:00:53.299Z,2.80
2022-09-29T15:06:06.408Z,2.63
2022-09-29T15:11:27.570Z,2.70
2022-09-29T15:16:42.763Z,2.70
2022-09-29T15:21:50.718Z,2.80
2022-09-29T15:26:53.696Z,2.80
2022-09-29T15:31:57.565Z,4.07
2022-09-29T15:36:59.885Z,3.47
2022-09-29T15:42:03.381Z,2.60
2022-09-29T15:47:07.128Z,2.00
2022-09-29T15:52:13.285Z,1.90
2022-09-29T15:57:52.852Z,2.35
2022-09-29T16:03:02.890Z,1.80
2022-09-29T16:08:07.391Z,1.52
2022-09-29T16:13:21.366Z,1.52
2022-09-29T16:18:26.295Z,1.70
2022-09-29T16:23:35.889Z,1.67
2022-09-29T16:28:39.153Z,2.30
2022-09-29T16:33:45.345Z,2.40
2022-09-29T16:38:48.147Z,2.85
2022-09-29T16:43:50.911Z,3.85
2022-09-29T16:48:54.614Z,3.55
2022-09-29T16:53:59.976Z,4.18
2022-09-29T16:59:11.286Z,4.03
2022-09-29T17:04:15.370Z,3.25
2022-09-29T17:09:20.138Z,5.25
2022-09-29T17:14:22.700Z,5.55
2022-09-29T17:19:26.569Z,6.55
2022-09-29T17:24:30.196Z,5.55
2022-09-29T17:29:32.916Z,6.47
2022-09-29T17:34:36.661Z,7.70
2022-09-29T17:39:39.313Z,12.68
2022-09-29T17:44:44.684Z,12.87
2022-09-29T17:49:50.817Z,13.82
2022-09-29T17:54:53.184Z,12.23
2022-09-29T17:59:58.257Z,12.38
2022-09-29T18:05:01.988Z,12.60
2022-09-29T18:10:07.023Z,11.40
2022-09-29T18:15:10.775Z,10.35
2022-09-29T18:20:15.889Z,12.05
2022-09-29T18:25:19.001Z,12.15
2022-09-29T18:30:22.945Z,13.75
2022-09-29T18:35:27.420Z,11.65
2022-09-29T18:40:30.597Z,13.43
2022-09-29T18:45:35.051Z,13.57
2022-09-29T18:50:42.860Z,11.25
2022-09-29T18:55:45.291Z,14.38
2022-09-29T19:00:50.033Z,14.25
2022-09-29T19:05:54.320Z,21.63
2022-09-29T19:10:58.360Z,24.45
2022-09-29T19:16:00.806Z,28.40
2022-09-29T19:21:10.057Z,23.42
2022-09-29T19:26:14.254Z,20.58
2022-09-29T19:31:19.210Z,25.70
2022-09-29T19:36:23.133Z,25.67
2022-09-29T19:41:26.334Z,37.00
2022-09-29T19:46:28.688Z,34.45
2022-09-29T19:51:49.760Z,28.88
2022-09-29T19:56:53.827Z,31.92
2022-09-29T20:01:57.639Z,28.13
2022-09-29T20:07:02.110Z,31.00
2022-09-29T20:12:04.537Z,33.72
2022-09-29T20:17:06.951Z,31.65
2022-09-29T20:22:10.722Z,35.50
2022-09-29T20:27:13.273Z,41.58
2022-09-29T20:32:15.678Z,36.42
2022-09-29T20:37:19.344Z,33.42
2022-09-29T20:47:25.233Z,30.05
2022-09-29T20:52:28.975Z,27.58
2022-09-29T20:57:32.553Z,29.70
2022-09-29T21:07:38.688Z,34.35
2022-09-29T21:12:41.038Z,30.17
2022-09-29T21:17:44.041Z,26.60
2022-09-29T21:22:47.798Z,25.40
2022-09-29T21:27:50.335Z,24.95
2022-09-29T21:32:52.746Z,23.75
2022-09-29T21:37:56.508Z,23.13
2022-09-29T21:42:58.953Z,27.02
2022-09-29T21:48:11.387Z,26.05
2022-09-29T21:53:15.223Z,28.38
2022-09-29T21:58:17.630Z,29.02
2022-09-29T22:03:20.014Z,29.83
2022-09-29T22:08:24.908Z,38.83
2022-09-29T22:13:27.421Z,29.23
2022-09-29T22:18:41.299Z,29.23
2022-09-29T22:23:46.206Z,26.17
2022-09-29T22:28:48.656Z,25.67
2022-09-29T22:33:54.205Z,27.02
2022-09-29T22:38:58.055Z,27.33
2022-09-29T22:44:00.947Z,27.17
2022-09-29T22:49:03.622Z,24.83
2022-09-29T22:54:07.881Z,26.87
2022-09-29T22:59:10.312Z,23.05
2022-09-29T23:04:12.767Z,23.67
2022-09-29T23:09:16.695Z,22.58
2022-09-29T23:14:19.225Z,19.73
2022-09-29T23:19:21.757Z,19.08
2022-09-29T23:24:25.692Z,14.18
2022-09-29T23:29:28.125Z,19.05
2022-09-29T23:34:30.530Z,17.60
2022-09-29T23:39:34.296Z,21.77
2022-09-29T23:44:40.604Z,25.00
2022-09-29T23:49:43.003Z,23.45
2022-09-29T23:54:47.770Z,21.30
2022-09-29T23:59:50.204Z,26.75
